createdAt,value
2023-01-26T00:00:12.577Z,31.80
2023-01-26T00:03:15.545Z,34.53
2023-01-26T00:06:19.954Z,43.90
2023-01-26T00:09:22.506Z,35.83
2023-01-26T00:12:24.707Z,36.28
2023-01-26T00:15:27.192Z,38.67
2023-01-26T00:18:30.361Z,34.10
2023-01-26T00:21:32.930Z,34.80
2023-01-26T00:24:35.239Z,37.45
2023-01-26T00:27:37.864Z,31.80
2023-01-26T00:30:40.084Z,35.78
2023-01-26T00:33:42.873Z,36.50
2023-01-26T00:36:45.459Z,36.90
2023-01-26T00:39:48.018Z,34.17
2023-01-26T00:42:50.324Z,33.60
2023-01-26T00:45:53.754Z,29.52
2023-01-26T00:48:56.080Z,37.75
2023-01-26T00:51:58.551Z,33.20
2023-01-26T00:55:00.759Z,30.48
2023-01-26T00:58:06.039Z,44.25
2023-01-26T01:01:08.742Z,39.83
2023-01-26T01:04:11.387Z,40.08
2023-01-26T01:07:13.938Z,38.20
2023-01-26T01:10:16.649Z,31.98
2023-01-26T01:13:18.837Z,28.20
2023-01-26T01:16:21.742Z,27.48
2023-01-26T01:19:24.454Z,34.72
2023-01-26T01:22:26.998Z,33.85
2023-01-26T01:25:29.336Z,42.58
2023-01-26T01:28:33.753Z,32.92
2023-01-26T01:31:36.122Z,40.05
2023-01-26T01:34:38.788Z,38.88
2023-01-26T01:37:40.965Z,35.90
2023-01-26T01:40:44.039Z,34.58
2023-01-26T01:43:46.396Z,33.88
2023-01-26T01:47:06.536Z,29.80
2023-01-26T01:53:24.466Z,36.85
2023-01-26T01:56:29.480Z,31.30
2023-01-26T01:59:32.795Z,27.90
2023-01-26T02:02:38.152Z,25.58
2023-01-26T02:05:51.103Z,27.52
2023-01-26T02:08:55.857Z,29.10
2023-01-26T02:11:59.407Z,25.67
2023-01-26T02:15:02.807Z,26.90
2023-01-26T02:18:05.923Z,24.35
2023-01-26T02:21:13.495Z,22.45
2023-01-26T02:24:22.520Z,25.02
2023-01-26T02:27:25.739Z,28.65
2023-01-26T02:30:29.212Z,21.77
2023-01-26T02:33:32.846Z,32.80
2023-01-26T02:36:35.127Z,23.90
2023-01-26T02:39:52.986Z,26.02
2023-01-26T02:42:55.363Z,22.60
2023-01-26T02:45:58.097Z,23.17
2023-01-26T02:49:19.044Z,21.85
2023-01-26T02:52:28.342Z,26.35
2023-01-26T02:55:31.019Z,26.55
2023-01-26T02:58:33.880Z,24.95
2023-01-26T03:01:36.639Z,22.58
2023-01-26T03:04:41.931Z,22.10
2023-01-26T03:07:44.216Z,21.23
2023-01-26T03:10:47.830Z,22.23
2023-01-26T03:13:50.391Z,23.67
2023-01-26T03:16:53.276Z,19.23
2023-01-26T03:20:14.267Z,21.42
2023-01-26T03:23:36.019Z,17.92
2023-01-26T03:26:58.884Z,20.00
2023-01-26T03:30:01.598Z,18.20
2023-01-26T03:33:05.296Z,21.58
2023-01-26T03:36:09.578Z,23.02
2023-01-26T03:39:32.654Z,21.12
2023-01-26T03:42:54.703Z,31.62
2023-01-26T03:46:15.801Z,23.10
2023-01-26T03:49:37.520Z,18.77
2023-01-26T03:52:58.380Z,20.85
2023-01-26T03:56:22.203Z,21.60
2023-01-26T03:59:38.258Z,17.37
2023-01-26T04:03:00.238Z,21.75
2023-01-26T04:06:21.374Z,23.20
2023-01-26T04:09:24.051Z,24.90
2023-01-26T04:12:26.760Z,21.42
2023-01-26T04:15:49.048Z,20.77
2023-01-26T04:19:10.183Z,16.83
2023-01-26T04:22:15.025Z,20.27
2023-01-26T04:25:21.134Z,22.30
2023-01-26T04:28:23.803Z,23.17
2023-01-26T04:31:26.508Z,19.17
2023-01-26T04:34:28.956Z,21.20
2023-01-26T04:37:32.377Z,20.88
2023-01-26T04:40:34.601Z,23.92
2023-01-26T04:43:38.056Z,18.48
2023-01-26T04:46:41.943Z,22.08
2023-01-26T04:49:46.771Z,15.93
2023-01-26T04:52:51.056Z,18.15
2023-01-26T04:55:54.327Z,18.70
2023-01-26T04:58:59.862Z,20.30
2023-01-26T05:02:02.877Z,17.92
2023-01-26T05:05:06.182Z,20.77
2023-01-26T05:08:08.772Z,16.55
2023-01-26T05:11:11.828Z,20.02
2023-01-26T05:14:16.064Z,14.52
2023-01-26T05:17:18.612Z,17.95
2023-01-26T05:20:21.771Z,13.62
2023-01-26T05:23:25.230Z,21.25
2023-01-26T05:26:31.304Z,18.27
2023-01-26T05:29:33.803Z,18.30
2023-01-26T05:32:37.492Z,18.70
2023-01-26T05:35:40.683Z,18.33
2023-01-26T05:38:44.130Z,23.27
2023-01-26T05:41:47.325Z,20.58
2023-01-26T05:44:52.378Z,21.65
2023-01-26T05:47:55.719Z,19.05
2023-01-26T05:50:58.587Z,23.08
2023-01-26T05:54:01.296Z,18.85
2023-01-26T05:57:04.253Z,23.77
2023-01-26T06:00:09.333Z,27.17
2023-01-26T06:03:15.755Z,23.20
2023-01-26T06:06:18.928Z,23.98
2023-01-26T06:09:22.572Z,24.42
2023-01-26T06:12:31.489Z,23.08
2023-01-26T06:15:34.312Z,16.83
2023-01-26T06:18:37.166Z,19.10
2023-01-26T06:21:41.095Z,22.73
2023-01-26T06:24:44.131Z,19.75
2023-01-26T06:27:46.449Z,20.27
2023-01-26T06:30:50.538Z,18.45
2023-01-26T06:33:55.481Z,22.90
2023-01-26T06:36:58.492Z,19.20
2023-01-26T06:40:00.918Z,18.35
2023-01-26T06:43:04.139Z,17.75
2023-01-26T06:46:08.420Z,16.65
2023-01-26T06:49:12.239Z,20.42
2023-01-26T06:52:55.115Z,17.45
2023-01-26T06:56:00.311Z,23.33
2023-01-26T06:59:02.925Z,16.30
2023-01-26T07:02:12.083Z,18.45
2023-01-26T07:05:14.297Z,11.75
2023-01-26T07:08:16.823Z,19.50
2023-01-26T07:11:20.195Z,16.45
2023-01-26T07:14:29.395Z,17.25
2023-01-26T07:17:31.996Z,13.35
2023-01-26T07:20:34.812Z,18.15
2023-01-26T07:23:39.118Z,17.37
2023-01-26T07:26:41.822Z,21.27
2023-01-26T07:29:46.356Z,16.98
2023-01-26T07:32:49.184Z,17.12
2023-01-26T07:35:55.350Z,14.48
2023-01-26T07:38:57.874Z,22.55
2023-01-26T07:42:00.247Z,14.55
2023-01-26T07:45:06.963Z,16.92
2023-01-26T07:48:09.693Z,18.25
2023-01-26T07:51:12.427Z,20.60
2023-01-26T07:54:15.025Z,14.82
2023-01-26T07:57:17.932Z,17.00
2023-01-26T08:00:21.958Z,20.88
2023-01-26T08:03:24.817Z,21.35
2023-01-26T08:06:27.377Z,21.73
2023-01-26T08:09:30.591Z,22.35
2023-01-26T08:12:38.953Z,16.23
2023-01-26T08:15:43.600Z,17.92
2023-01-26T08:18:47.441Z,18.17
2023-01-26T08:21:50.621Z,21.75
2023-01-26T08:24:53.000Z,19.35
2023-01-26T08:27:56.008Z,25.33
2023-01-26T08:31:07.776Z,16.95
2023-01-26T08:34:10.651Z,17.73
2023-01-26T08:37:12.863Z,21.83
2023-01-26T08:40:16.531Z,17.33
2023-01-26T08:43:19.363Z,16.30
2023-01-26T08:46:22.096Z,19.12
2023-01-26T08:49:24.693Z,14.65
2023-01-26T08:52:27.393Z,17.65
2023-01-26T08:55:29.835Z,17.95
2023-01-26T08:58:33.745Z,13.62
2023-01-26T09:01:35.932Z,15.68
2023-01-26T09:04:38.502Z,21.25
2023-01-26T09:07:42.176Z,18.70
2023-01-26T09:10:48.851Z,19.75
2023-01-26T09:13:56.590Z,21.35
2023-01-26T09:16:59.296Z,18.15
2023-01-26T09:20:01.715Z,16.08
2023-01-26T09:23:05.195Z,14.85
2023-01-26T09:26:07.431Z,18.80
2023-01-26T09:29:12.392Z,22.27
2023-01-26T09:32:14.876Z,17.17
2023-01-26T09:35:17.718Z,15.60
2023-01-26T09:38:20.560Z,23.42
2023-01-26T09:41:48.160Z,20.58
2023-01-26T09:45:13.984Z,20.45
2023-01-26T09:48:27.230Z,17.65
2023-01-26T09:51:33.955Z,23.35
2023-01-26T09:54:48.906Z,18.05
2023-01-26T09:57:55.618Z,19.55
2023-01-26T10:01:02.410Z,20.23
2023-01-26T10:04:25.221Z,18.50
2023-01-26T10:07:28.476Z,25.42
2023-01-26T10:10:39.052Z,20.80
2023-01-26T10:13:48.628Z,26.37
2023-01-26T10:16:53.827Z,31.85
2023-01-26T10:20:03.133Z,23.50
2023-01-26T10:23:14.389Z,27.67
2023-01-26T10:26:23.996Z,21.67
2023-01-26T10:29:28.842Z,21.23
2023-01-26T10:32:32.276Z,25.80
2023-01-26T10:35:35.358Z,24.85
2023-01-26T10:38:37.946Z,24.08
2023-01-26T10:41:41.433Z,22.48
2023-01-26T10:44:45.220Z,27.33
2023-01-26T10:48:05.595Z,24.12
2023-01-26T10:51:16.391Z,22.17
2023-01-26T10:54:27.721Z,25.73
2023-01-26T10:57:33.355Z,23.80
2023-01-26T11:00:37.174Z,17.60
2023-01-26T11:03:41.006Z,24.02
2023-01-26T11:06:44.116Z,28.15
2023-01-26T11:09:47.676Z,21.80
2023-01-26T11:12:52.011Z,23.20
2023-01-26T11:16:05.489Z,21.60
2023-01-26T11:19:17.072Z,20.45
2023-01-26T11:22:29.044Z,21.70
2023-01-26T11:25:43.017Z,30.37
2023-01-26T11:29:10.028Z,18.92
2023-01-26T11:32:39.887Z,23.05
2023-01-26T11:35:50.432Z,24.10
2023-01-26T11:39:14.968Z,23.33
2023-01-26T11:42:37.286Z,28.00
2023-01-26T11:45:59.600Z,22.10
2023-01-26T11:49:28.713Z,26.70
2023-01-26T11:52:51.504Z,26.08
2023-01-26T11:56:25.658Z,25.30
2023-01-26T11:59:46.129Z,22.67
2023-01-26T12:03:32.104Z,26.60
2023-01-26T12:06:42.197Z,37.20
2023-01-26T12:09:48.107Z,24.60
2023-01-26T12:12:58.217Z,26.67
2023-01-26T12:16:09.350Z,28.12
2023-01-26T12:19:26.401Z,25.65
2023-01-26T12:22:37.616Z,33.10
2023-01-26T12:25:47.045Z,33.55
2023-01-26T12:32:14.999Z,24.17
2023-01-26T12:35:32.480Z,29.50
2023-01-26T12:38:57.079Z,27.50
2023-01-26T12:42:03.827Z,33.05
2023-01-26T12:45:20.528Z,27.55
2023-01-26T12:48:30.989Z,29.30
2023-01-26T12:51:38.127Z,30.95
2023-01-26T12:54:50.403Z,28.83
2023-01-26T12:57:59.154Z,27.48
2023-01-26T13:01:11.250Z,30.58
2023-01-26T13:04:16.760Z,33.08
2023-01-26T13:07:37.989Z,26.73
2023-01-26T13:10:48.405Z,24.45
2023-01-26T13:13:56.315Z,25.58
2023-01-26T13:17:42.213Z,26.75
2023-01-26T13:20:48.856Z,24.45
2023-01-26T13:23:52.822Z,33.20
2023-01-26T13:26:57.916Z,31.90
2023-01-26T13:30:01.425Z,26.25
2023-01-26T13:33:24.613Z,27.92
2023-01-26T13:36:32.505Z,25.95
2023-01-26T13:39:37.224Z,30.42
2023-01-26T13:42:57.275Z,24.77
2023-01-26T13:46:13.460Z,24.77
2023-01-26T13:49:27.561Z,28.90
2023-01-26T13:52:31.381Z,25.25
2023-01-26T13:55:34.689Z,23.73
2023-01-26T13:58:37.125Z,24.58
2023-01-26T14:01:44.531Z,29.98
2023-01-26T14:04:53.253Z,30.95
2023-01-26T14:07:56.334Z,23.00
2023-01-26T14:11:00.498Z,23.38
2023-01-26T14:14:03.048Z,29.95
2023-01-26T14:17:34.568Z,26.23
2023-01-26T14:20:42.230Z,31.55
2023-01-26T14:23:46.056Z,29.50
2023-01-26T14:26:48.687Z,33.08
2023-01-26T14:29:51.643Z,27.52
2023-01-26T14:33:02.429Z,26.65
2023-01-26T14:36:05.640Z,28.85
2023-01-26T14:39:17.544Z,29.05
2023-01-26T14:42:21.222Z,33.65
2023-01-26T14:45:32.262Z,27.55
2023-01-26T14:48:45.895Z,31.52
2023-01-26T14:51:56.346Z,33.70
2023-01-26T14:55:09.236Z,33.42
2023-01-26T14:58:28.230Z,28.85
2023-01-26T15:01:31.881Z,32.20
2023-01-26T15:04:39.474Z,44.90
2023-01-26T15:07:45.055Z,30.48
2023-01-26T15:10:50.252Z,30.25
2023-01-26T15:13:55.331Z,24.85
2023-01-26T15:16:57.765Z,38.60
2023-01-26T15:20:00.567Z,29.90
2023-01-26T15:23:02.852Z,26.92
2023-01-26T15:26:14.073Z,30.27
2023-01-26T15:29:30.964Z,22.15
2023-01-26T15:32:39.677Z,34.53
2023-01-26T15:35:58.002Z,22.90
2023-01-26T15:39:21.281Z,31.12
2023-01-26T15:42:27.940Z,31.15
2023-01-26T15:45:33.627Z,24.95
2023-01-26T15:48:35.973Z,21.73
2023-01-26T15:51:39.007Z,21.52
2023-01-26T15:54:41.463Z,27.55
2023-01-26T15:57:44.044Z,27.02
2023-01-26T16:00:47.335Z,23.52
2023-01-26T16:03:51.446Z,25.62
2023-01-26T16:06:53.920Z,23.30
2023-01-26T16:09:56.442Z,21.52
2023-01-26T16:12:58.756Z,25.37
2023-01-26T16:16:01.397Z,19.90
2023-01-26T16:19:03.716Z,18.58
2023-01-26T16:22:06.732Z,16.85
2023-01-26T16:25:22.849Z,21.15
2023-01-26T16:28:25.523Z,23.60
2023-01-26T16:31:33.275Z,24.05
2023-01-26T16:34:36.193Z,21.42
2023-01-26T16:37:38.633Z,14.13
2023-01-26T16:40:47.585Z,17.25
2023-01-26T16:43:50.022Z,25.15
2023-01-26T16:46:52.626Z,19.87
2023-01-26T16:49:54.940Z,22.50
2023-01-26T16:52:57.559Z,15.35
2023-01-26T16:56:00.287Z,16.10
2023-01-26T16:59:05.035Z,13.75
2023-01-26T17:02:31.505Z,19.37
2023-01-26T17:05:34.260Z,18.45
2023-01-26T17:08:36.617Z,23.52
2023-01-26T17:11:39.228Z,22.15
2023-01-26T17:14:41.820Z,15.13
2023-01-26T17:17:45.636Z,19.05
2023-01-26T17:20:48.021Z,18.77
2023-01-26T17:23:52.491Z,19.20
2023-01-26T17:26:57.341Z,22.37
2023-01-26T17:29:59.891Z,20.52
2023-01-26T17:33:02.384Z,18.27
2023-01-26T17:36:06.559Z,19.73
2023-01-26T17:39:10.531Z,27.75
2023-01-26T17:42:15.951Z,18.55
2023-01-26T17:45:18.604Z,21.25
2023-01-26T17:48:21.219Z,20.00
2023-01-26T17:51:23.716Z,15.15
2023-01-26T17:54:26.316Z,17.65
2023-01-26T17:57:28.793Z,15.35
2023-01-26T18:00:31.892Z,16.98
2023-01-26T18:03:35.229Z,16.02
2023-01-26T18:06:38.870Z,24.27
2023-01-26T18:09:41.804Z,18.40
2023-01-26T18:12:44.377Z,15.23
2023-01-26T18:15:46.919Z,22.95
2023-01-26T18:18:53.881Z,19.25
2023-01-26T18:21:56.513Z,17.35
2023-01-26T18:24:58.987Z,20.37
2023-01-26T18:28:01.475Z,18.80
2023-01-26T18:31:09.211Z,12.90
2023-01-26T18:34:12.242Z,17.92
2023-01-26T18:37:14.556Z,21.20
2023-01-26T18:40:18.139Z,20.42
2023-01-26T18:43:20.879Z,22.65
2023-01-26T18:46:25.210Z,18.65
2023-01-26T18:49:27.604Z,19.05
2023-01-26T18:52:31.070Z,26.33
2023-01-26T18:55:34.577Z,16.95
2023-01-26T18:58:39.014Z,20.70
2023-01-26T19:01:43.683Z,20.73
2023-01-26T19:04:46.425Z,18.30
2023-01-26T19:07:48.646Z,16.80
2023-01-26T19:10:51.585Z,16.62
2023-01-26T19:13:54.516Z,20.80
2023-01-26T19:16:57.318Z,20.40
2023-01-26T19:19:59.735Z,17.50
2023-01-26T19:23:04.748Z,22.40
2023-01-26T19:26:12.322Z,18.50
2023-01-26T19:29:15.475Z,17.37
2023-01-26T19:32:17.859Z,17.48
2023-01-26T19:35:21.734Z,17.30
2023-01-26T19:38:24.447Z,20.73
2023-01-26T19:41:27.404Z,20.10
2023-01-26T19:44:29.831Z,18.52
2023-01-26T19:47:32.446Z,18.80
2023-01-26T19:50:37.361Z,18.48
2023-01-26T19:53:42.067Z,15.73
2023-01-26T19:56:44.560Z,18.87
2023-01-26T19:59:47.179Z,16.98
2023-01-26T20:02:49.737Z,20.92
2023-01-26T20:05:52.380Z,18.92
2023-01-26T20:08:55.108Z,17.23
2023-01-26T20:11:57.959Z,19.15
2023-01-26T20:15:00.837Z,21.00
2023-01-26T20:18:03.942Z,23.83
2023-01-26T20:21:07.305Z,19.73
2023-01-26T20:24:14.874Z,16.87
2023-01-26T20:27:17.222Z,29.30
2023-01-26T20:30:20.535Z,18.73
2023-01-26T20:33:23.381Z,19.87
2023-01-26T20:36:27.906Z,26.17
2023-01-26T20:39:30.199Z,27.77
2023-01-26T20:42:33.464Z,22.62
2023-01-26T20:45:40.003Z,27.85
2023-01-26T20:48:42.936Z,25.40
2023-01-26T20:51:46.235Z,25.45
2023-01-26T20:54:49.322Z,24.30
2023-01-26T20:57:52.240Z,29.65
2023-01-26T21:01:04.197Z,28.73
2023-01-26T21:04:07.164Z,24.42
2023-01-26T21:07:10.507Z,26.60
2023-01-26T21:10:13.325Z,25.37
2023-01-26T21:13:16.332Z,26.55
2023-01-26T21:16:19.656Z,30.70
2023-01-26T21:19:23.911Z,25.60
2023-01-26T21:22:28.254Z,28.98
2023-01-26T21:25:30.836Z,22.70
2023-01-26T21:28:33.739Z,21.17
2023-01-26T21:31:36.431Z,29.83
2023-01-26T21:34:39.067Z,19.60
2023-01-26T21:37:41.714Z,26.35
2023-01-26T21:40:44.041Z,26.92
2023-01-26T21:43:46.657Z,25.77
2023-01-26T21:46:51.933Z,27.30
2023-01-26T21:49:56.142Z,28.42
2023-01-26T21:52:58.691Z,22.92
2023-01-26T21:56:01.546Z,26.37
2023-01-26T21:59:07.585Z,24.48
2023-01-26T22:02:10.153Z,20.80
2023-01-26T22:05:12.859Z,24.20
2023-01-26T22:08:15.405Z,24.67
2023-01-26T22:11:18.457Z,24.77
2023-01-26T22:14:24.945Z,26.05
2023-01-26T22:17:28.164Z,23.95
2023-01-26T22:20:30.717Z,24.50
2023-01-26T22:23:40.958Z,25.40
2023-01-26T22:26:43.292Z,24.95
2023-01-26T22:29:45.817Z,23.83
2023-01-26T22:32:48.308Z,25.73
2023-01-26T22:35:58.931Z,30.05
2023-01-26T22:39:01.231Z,26.12
2023-01-26T22:42:04.043Z,22.60
2023-01-26T22:45:07.110Z,24.55
2023-01-26T22:48:09.962Z,21.98
2023-01-26T22:51:17.983Z,30.25
2023-01-26T22:54:21.056Z,27.55
2023-01-26T22:57:23.369Z,26.27
2023-01-26T23:00:26.645Z,24.02
2023-01-26T23:03:28.848Z,21.75
2023-01-26T23:06:31.530Z,27.37
2023-01-26T23:09:33.819Z,21.65
2023-01-26T23:12:36.952Z,22.70
2023-01-26T23:15:39.156Z,28.50
2023-01-26T23:18:42.813Z,27.62
2023-01-26T23:21:45.412Z,27.40
2023-01-26T23:25:08.238Z,21.05
2023-01-26T23:28:10.469Z,28.27
2023-01-26T23:31:15.738Z,27.35
2023-01-26T23:34:18.682Z,28.52
2023-01-26T23:37:21.207Z,28.20
2023-01-26T23:40:23.396Z,21.30
2023-01-26T23:43:26.468Z,25.20
2023-01-26T23:46:28.828Z,33.50
2023-01-26T23:49:31.639Z,31.77
2023-01-26T23:52:33.814Z,31.60
2023-01-26T23:55:41.399Z,27.50
2023-01-26T23:58:44.041Z,26.00
